sensor_id;sensor_type;location;lat;lon;timestamp;temperature;humidity
54824;DHT22;40724;53.196;5.980;2023-03-23T00:01:47;10.30;99.90
54824;DHT22;40724;53.196;5.980;2023-03-23T00:04:16;10.30;99.90
54824;DHT22;40724;53.196;5.980;2023-03-23T00:06:42;10.30;99.90
54824;DHT22;40724;53.196;5.980;2023-03-23T00:09:12;10.30;99.90
54824;DHT22;40724;53.196;5.980;2023-03-23T00:11:38;10.30;99.90
54824;DHT22;40724;53.196;5.980;2023-03-23T00:14:05;10.30;99.90
54824;DHT22;40724;53.196;5.980;2023-03-23T00:16:32;10.30;99.90
54824;DHT22;40724;53.196;5.980;2023-03-23T00:19:12;10.30;99.90
54824;DHT22;40724;53.196;5.980;2023-03-23T00:21:42;10.40;99.90
54824;DHT22;40724;53.196;5.980;2023-03-23T00:24:14;10.40;99.90
54824;DHT22;40724;53.196;5.980;2023-03-23T00:26:43;10.40;99.90
54824;DHT22;40724;53.196;5.980;2023-03-23T00:29:20;10.40;99.90
54824;DHT22;40724;53.196;5.980;2023-03-23T00:31:47;10.40;99.90
54824;DHT22;40724;53.196;5.980;2023-03-23T00:34:16;10.40;99.90
54824;DHT22;40724;53.196;5.980;2023-03-23T00:36:50;10.40;99.90
54824;DHT22;40724;53.196;5.980;2023-03-23T00:39:16;10.40;99.90
54824;DHT22;40724;53.196;5.980;2023-03-23T00:41:43;10.50;99.90
54824;DHT22;40724;53.196;5.980;2023-03-23T00:44:10;10.50;99.90
54824;DHT22;40724;53.196;5.980;2023-03-23T00:46:36;10.50;99.90
54824;DHT22;40724;53.196;5.980;2023-03-23T00:49:12;10.40;99.90
54824;DHT22;40724;53.196;5.980;2023-03-23T00:51:39;10.50;99.90
54824;DHT22;40724;53.196;5.980;2023-03-23T00:54:04;10.40;99.90
54824;DHT22;40724;53.196;5.980;2023-03-23T00:56:30;10.40;99.90
54824;DHT22;40724;53.196;5.980;2023-03-23T00:58:56;10.40;99.90
54824;DHT22;40724;53.196;5.980;2023-03-23T01:01:22;10.40;99.90
54824;DHT22;40724;53.196;5.980;2023-03-23T01:03:48;10.40;99.90
54824;DHT22;40724;53.196;5.980;2023-03-23T01:06:15;10.40;99.90
54824;DHT22;40724;53.196;5.980;2023-03-23T01:08:42;10.40;99.90
54824;DHT22;40724;53.196;5.980;2023-03-23T01:11:13;10.40;99.90
54824;DHT22;40724;53.196;5.980;2023-03-23T01:13:41;10.40;99.90
54824;DHT22;40724;53.196;5.980;2023-03-23T01:16:08;10.40;99.90
54824;DHT22;40724;53.196;5.980;2023-03-23T01:18:34;10.40;99.90
54824;DHT22;40724;53.196;5.980;2023-03-23T01:21:12;10.50;99.90
54824;DHT22;40724;53.196;5.980;2023-03-23T01:23:38;10.50;99.90
54824;DHT22;40724;53.196;5.980;2023-03-23T01:26:07;10.50;99.90
54824;DHT22;40724;53.196;5.980;2023-03-23T01:28:34;10.60;99.90
54824;DHT22;40724;53.196;5.980;2023-03-23T01:31:05;10.60;99.90
54824;DHT22;40724;53.196;5.980;2023-03-23T01:33:32;10.70;99.90
54824;DHT22;40724;53.196;5.980;2023-03-23T01:36:02;10.70;99.90
54824;DHT22;40724;53.196;5.980;2023-03-23T01:38:28;10.70;99.90
54824;DHT22;40724;53.196;5.980;2023-03-23T01:40:55;10.70;99.90
54824;DHT22;40724;53.196;5.980;2023-03-23T01:43:21;10.70;99.90
54824;DHT22;40724;53.196;5.980;2023-03-23T01:45:47;10.70;99.90
54824;DHT22;40724;53.196;5.980;2023-03-23T01:48:35;10.80;99.90
54824;DHT22;40724;53.196;5.980;2023-03-23T01:51:09;10.70;99.90
54824;DHT22;40724;53.196;5.980;2023-03-23T01:53:47;10.70;99.90
54824;DHT22;40724;53.196;5.980;2023-03-23T01:56:17;10.80;99.90
54824;DHT22;40724;53.196;5.980;2023-03-23T01:58:44;10.80;99.90
54824;DHT22;40724;53.196;5.980;2023-03-23T02:01:13;10.90;99.90
54824;DHT22;40724;53.196;5.980;2023-03-23T02:03:44;10.90;99.90
54824;DHT22;40724;53.196;5.980;2023-03-23T02:06:11;11.00;99.90
54824;DHT22;40724;53.196;5.980;2023-03-23T02:08:38;11.00;99.90
54824;DHT22;40724;53.196;5.980;2023-03-23T02:11:19;11.00;99.90
54824;DHT22;40724;53.196;5.980;2023-03-23T02:13:45;11.00;99.90
54824;DHT22;40724;53.196;5.980;2023-03-23T02:16:44;11.10;99.90
54824;DHT22;40724;53.196;5.980;2023-03-23T02:25:09;11.10;99.90
54824;DHT22;40724;53.196;5.980;2023-03-23T02:31:03;11.10;99.90
54824;DHT22;40724;53.196;5.980;2023-03-23T02:39:05;11.10;99.90
54824;DHT22;40724;53.196;5.980;2023-03-23T02:41:42;11.20;99.90
54824;DHT22;40724;53.196;5.980;2023-03-23T02:44:12;11.10;99.90
54824;DHT22;40724;53.196;5.980;2023-03-23T02:46:39;11.20;99.90
54824;DHT22;40724;53.196;5.980;2023-03-23T02:49:07;11.20;99.90
54824;DHT22;40724;53.196;5.980;2023-03-23T02:51:36;11.20;99.90
54824;DHT22;40724;53.196;5.980;2023-03-23T02:54:03;11.20;99.90
54824;DHT22;40724;53.196;5.980;2023-03-23T02:56:30;11.10;99.90
54824;DHT22;40724;53.196;5.980;2023-03-23T02:58:58;11.20;99.90
54824;DHT22;40724;53.196;5.980;2023-03-23T03:04:01;11.10;99.90
54824;DHT22;40724;53.196;5.980;2023-03-23T03:09:25;11.10;99.90
54824;DHT22;40724;53.196;5.980;2023-03-23T03:11:59;11.10;99.90
54824;DHT22;40724;53.196;5.980;2023-03-23T03:14:37;11.10;99.90
54824;DHT22;40724;53.196;5.980;2023-03-23T03:17:24;11.10;99.90
54824;DHT22;40724;53.196;5.980;2023-03-23T03:20:01;11.10;99.90
54824;DHT22;40724;53.196;5.980;2023-03-23T03:22:38;11.10;99.90
54824;DHT22;40724;53.196;5.980;2023-03-23T03:25:08;11.10;99.90
54824;DHT22;40724;53.196;5.980;2023-03-23T03:27:34;11.10;99.90
54824;DHT22;40724;53.196;5.980;2023-03-23T03:30:03;11.00;99.90
54824;DHT22;40724;53.196;5.980;2023-03-23T03:32:49;11.00;99.90
54824;DHT22;40724;53.196;5.980;2023-03-23T03:35:23;11.00;99.90
54824;DHT22;40724;53.196;5.980;2023-03-23T03:37:49;10.90;99.90
54824;DHT22;40724;53.196;5.980;2023-03-23T03:40:19;10.90;99.90
54824;DHT22;40724;53.196;5.980;2023-03-23T03:42:45;10.90;99.90
54824;DHT22;40724;53.196;5.980;2023-03-23T03:45:14;10.80;99.90
54824;DHT22;40724;53.196;5.980;2023-03-23T03:47:41;10.80;99.90
54824;DHT22;40724;53.196;5.980;2023-03-23T03:50:10;10.80;99.90
54824;DHT22;40724;53.196;5.980;2023-03-23T03:52:37;10.70;99.90
54824;DHT22;40724;53.196;5.980;2023-03-23T03:55:05;10.70;99.90
54824;DHT22;40724;53.196;5.980;2023-03-23T03:57:32;10.70;99.90
54824;DHT22;40724;53.196;5.980;2023-03-23T03:59:58;10.70;99.90
54824;DHT22;40724;53.196;5.980;2023-03-23T04:02:24;10.70;99.90
54824;DHT22;40724;53.196;5.980;2023-03-23T04:04:50;10.60;99.90
54824;DHT22;40724;53.196;5.980;2023-03-23T04:07:19;10.60;99.90
54824;DHT22;40724;53.196;5.980;2023-03-23T04:09:47;10.60;99.90
54824;DHT22;40724;53.196;5.980;2023-03-23T04:12:16;10.60;99.90
54824;DHT22;40724;53.196;5.980;2023-03-23T04:14:41;10.60;99.90
54824;DHT22;40724;53.196;5.980;2023-03-23T04:17:07;10.50;99.90
54824;DHT22;40724;53.196;5.980;2023-03-23T04:19:36;10.50;99.90
54824;DHT22;40724;53.196;5.980;2023-03-23T04:22:04;10.50;99.90
54824;DHT22;40724;53.196;5.980;2023-03-23T04:24:30;10.50;99.90
54824;DHT22;40724;53.196;5.980;2023-03-23T04:26:59;10.50;99.90
54824;DHT22;40724;53.196;5.980;2023-03-23T04:29:25;10.50;99.90
54824;DHT22;40724;53.196;5.980;2023-03-23T04:31:52;10.40;99.90
54824;DHT22;40724;53.196;5.980;2023-03-23T04:34:18;10.40;99.90
54824;DHT22;40724;53.196;5.980;2023-03-23T04:36:44;10.40;99.90
54824;DHT22;40724;53.196;5.980;2023-03-23T04:39:12;10.40;99.90
54824;DHT22;40724;53.196;5.980;2023-03-23T04:41:39;10.30;99.90
54824;DHT22;40724;53.196;5.980;2023-03-23T04:44:06;10.30;99.90
54824;DHT22;40724;53.196;5.980;2023-03-23T04:46:33;10.40;99.90
54824;DHT22;40724;53.196;5.980;2023-03-23T04:48:59;10.40;99.90
54824;DHT22;40724;53.196;5.980;2023-03-23T04:51:26;10.40;99.90
54824;DHT22;40724;53.196;5.980;2023-03-23T04:53:53;10.40;99.90
54824;DHT22;40724;53.196;5.980;2023-03-23T04:56:19;10.40;99.90
54824;DHT22;40724;53.196;5.980;2023-03-23T04:58:46;10.40;99.90
54824;DHT22;40724;53.196;5.980;2023-03-23T05:01:12;10.40;99.90
54824;DHT22;40724;53.196;5.980;2023-03-23T05:03:41;10.40;99.90
54824;DHT22;40724;53.196;5.980;2023-03-23T05:06:07;10.40;99.90
54824;DHT22;40724;53.196;5.980;2023-03-23T05:08:33;10.40;99.90
54824;DHT22;40724;53.196;5.980;2023-03-23T05:11:00;10.40;99.90
54824;DHT22;40724;53.196;5.980;2023-03-23T05:13:29;10.30;99.90
54824;DHT22;40724;53.196;5.980;2023-03-23T05:15:55;10.30;99.90
54824;DHT22;40724;53.196;5.980;2023-03-23T05:18:20;10.30;99.90
54824;DHT22;40724;53.196;5.980;2023-03-23T05:20:47;10.30;99.90
54824;DHT22;40724;53.196;5.980;2023-03-23T05:23:14;10.30;99.90
54824;DHT22;40724;53.196;5.980;2023-03-23T05:25:40;10.30;99.90
54824;DHT22;40724;53.196;5.980;2023-03-23T05:28:10;10.20;99.90
54824;DHT22;40724;53.196;5.980;2023-03-23T05:30:37;10.20;99.90
54824;DHT22;40724;53.196;5.980;2023-03-23T05:33:04;10.20;99.90
54824;DHT22;40724;53.196;5.980;2023-03-23T05:35:30;10.20;99.90
54824;DHT22;40724;53.196;5.980;2023-03-23T05:37:56;10.20;99.90
54824;DHT22;40724;53.196;5.980;2023-03-23T05:40:25;10.10;99.90
54824;DHT22;40724;53.196;5.980;2023-03-23T05:42:51;10.10;99.90
54824;DHT22;40724;53.196;5.980;2023-03-23T05:45:18;10.10;99.90
54824;DHT22;40724;53.196;5.980;2023-03-23T05:47:44;10.10;99.90
54824;DHT22;40724;53.196;5.980;2023-03-23T05:50:11;10.00;99.90
54824;DHT22;40724;53.196;5.980;2023-03-23T05:52:38;10.00;99.90
54824;DHT22;40724;53.196;5.980;2023-03-23T05:55:04;10.00;99.90
54824;DHT22;40724;53.196;5.980;2023-03-23T05:57:31;10.00;99.90
54824;DHT22;40724;53.196;5.980;2023-03-23T05:59:57;10.00;99.90
54824;DHT22;40724;53.196;5.980;2023-03-23T06:02:25;10.00;99.90
54824;DHT22;40724;53.196;5.980;2023-03-23T06:04:53;10.00;99.90
54824;DHT22;40724;53.196;5.980;2023-03-23T06:07:24;9.90;99.90
54824;DHT22;40724;53.196;5.980;2023-03-23T06:09:51;9.90;99.90
54824;DHT22;40724;53.196;5.980;2023-03-23T06:12:17;9.90;99.90
54824;DHT22;40724;53.196;5.980;2023-03-23T06:14:47;9.80;99.90
54824;DHT22;40724;53.196;5.980;2023-03-23T06:17:15;9.80;99.90
54824;DHT22;40724;53.196;5.980;2023-03-23T06:19:41;9.70;99.90
54824;DHT22;40724;53.196;5.980;2023-03-23T06:22:07;9.70;99.90
54824;DHT22;40724;53.196;5.980;2023-03-23T06:24:33;9.60;99.90
54824;DHT22;40724;53.196;5.980;2023-03-23T06:26:59;9.60;99.90
54824;DHT22;40724;53.196;5.980;2023-03-23T06:29:25;9.60;99.90
54824;DHT22;40724;53.196;5.980;2023-03-23T06:31:54;9.50;99.90
54824;DHT22;40724;53.196;5.980;2023-03-23T06:34:21;9.50;99.90
54824;DHT22;40724;53.196;5.980;2023-03-23T06:36:47;9.40;99.90
54824;DHT22;40724;53.196;5.980;2023-03-23T06:39:13;9.40;99.90
54824;DHT22;40724;53.196;5.980;2023-03-23T06:41:39;9.40;99.90
54824;DHT22;40724;53.196;5.980;2023-03-23T06:44:05;9.50;99.90
54824;DHT22;40724;53.196;5.980;2023-03-23T06:46:34;9.50;99.90
54824;DHT22;40724;53.196;5.980;2023-03-23T06:49:00;9.50;99.90
54824;DHT22;40724;53.196;5.980;2023-03-23T06:51:26;9.50;99.90
54824;DHT22;40724;53.196;5.980;2023-03-23T06:53:52;9.50;99.90
54824;DHT22;40724;53.196;5.980;2023-03-23T06:56:17;9.60;99.90
54824;DHT22;40724;53.196;5.980;2023-03-23T06:58:43;9.60;99.90
54824;DHT22;40724;53.196;5.980;2023-03-23T07:01:11;9.60;99.90
54824;DHT22;40724;53.196;5.980;2023-03-23T07:03:37;9.60;99.90
54824;DHT22;40724;53.196;5.980;2023-03-23T07:06:03;9.70;99.90
54824;DHT22;40724;53.196;5.980;2023-03-23T07:08:30;9.70;99.90
54824;DHT22;40724;53.196;5.980;2023-03-23T07:10:56;9.70;99.90
54824;DHT22;40724;53.196;5.980;2023-03-23T07:13:22;9.80;99.90
54824;DHT22;40724;53.196;5.980;2023-03-23T07:15:48;9.80;99.90
54824;DHT22;40724;53.196;5.980;2023-03-23T07:18:15;9.90;99.90
54824;DHT22;40724;53.196;5.980;2023-03-23T07:20:40;9.90;99.90
54824;DHT22;40724;53.196;5.980;2023-03-23T07:23:07;9.90;99.90
54824;DHT22;40724;53.196;5.980;2023-03-23T07:25:34;10.00;99.90
54824;DHT22;40724;53.196;5.980;2023-03-23T07:28:01;10.00;99.90
54824;DHT22;40724;53.196;5.980;2023-03-23T07:30:28;10.00;99.90
54824;DHT22;40724;53.196;5.980;2023-03-23T07:32:57;10.00;99.90
54824;DHT22;40724;53.196;5.980;2023-03-23T07:35:24;10.10;99.90
54824;DHT22;40724;53.196;5.980;2023-03-23T07:37:50;10.10;99.90
54824;DHT22;40724;53.196;5.980;2023-03-23T07:40:18;10.20;99.90
54824;DHT22;40724;53.196;5.980;2023-03-23T07:42:54;10.20;99.90
54824;DHT22;40724;53.196;5.980;2023-03-23T07:45:21;10.30;99.90
54824;DHT22;40724;53.196;5.980;2023-03-23T07:47:47;10.30;99.90
54824;DHT22;40724;53.196;5.980;2023-03-23T07:50:13;10.40;99.90
54824;DHT22;40724;53.196;5.980;2023-03-23T07:52:39;10.40;99.90
54824;DHT22;40724;53.196;5.980;2023-03-23T07:55:09;10.40;99.90
54824;DHT22;40724;53.196;5.980;2023-03-23T07:57:37;10.40;99.90
54824;DHT22;40724;53.196;5.980;2023-03-23T08:00:04;10.50;99.90
54824;DHT22;40724;53.196;5.980;2023-03-23T08:02:36;10.50;99.90
54824;DHT22;40724;53.196;5.980;2023-03-23T08:05:02;10.50;99.90
54824;DHT22;40724;53.196;5.980;2023-03-23T08:07:28;10.60;99.90
54824;DHT22;40724;53.196;5.980;2023-03-23T08:09:54;10.60;99.90
54824;DHT22;40724;53.196;5.980;2023-03-23T08:12:20;10.60;99.90
54824;DHT22;40724;53.196;5.980;2023-03-23T08:14:46;10.60;99.90
54824;DHT22;40724;53.196;5.980;2023-03-23T08:17:13;10.60;99.90
54824;DHT22;40724;53.196;5.980;2023-03-23T08:19:40;10.60;99.90
54824;DHT22;40724;53.196;5.980;2023-03-23T08:22:06;10.60;99.90
54824;DHT22;40724;53.196;5.980;2023-03-23T08:24:32;10.70;99.90
54824;DHT22;40724;53.196;5.980;2023-03-23T08:27:01;10.70;99.90
54824;DHT22;40724;53.196;5.980;2023-03-23T08:29:27;10.70;99.90
54824;DHT22;40724;53.196;5.980;2023-03-23T08:31:53;10.80;99.90
54824;DHT22;40724;53.196;5.980;2023-03-23T08:34:19;10.90;99.90
54824;DHT22;40724;53.196;5.980;2023-03-23T08:36:45;10.90;99.90
54824;DHT22;40724;53.196;5.980;2023-03-23T08:39:12;11.00;99.90
54824;DHT22;40724;53.196;5.980;2023-03-23T08:41:40;11.00;99.90
54824;DHT22;40724;53.196;5.980;2023-03-23T08:44:06;11.10;99.90
54824;DHT22;40724;53.196;5.980;2023-03-23T08:46:33;11.10;99.90
54824;DHT22;40724;53.196;5.980;2023-03-23T08:48:58;11.20;99.90
54824;DHT22;40724;53.196;5.980;2023-03-23T08:51:24;11.20;99.90
54824;DHT22;40724;53.196;5.980;2023-03-23T08:53:50;11.20;99.90
54824;DHT22;40724;53.196;5.980;2023-03-23T08:56:18;11.20;99.90
54824;DHT22;40724;53.196;5.980;2023-03-23T08:58:43;11.30;99.90
54824;DHT22;40724;53.196;5.980;2023-03-23T09:01:09;11.30;99.90
54824;DHT22;40724;53.196;5.980;2023-03-23T09:03:36;11.30;99.90
54824;DHT22;40724;53.196;5.980;2023-03-23T09:06:05;11.30;99.90
54824;DHT22;40724;53.196;5.980;2023-03-23T09:08:32;11.30;99.90
54824;DHT22;40724;53.196;5.980;2023-03-23T09:11:08;11.40;99.90
54824;DHT22;40724;53.196;5.980;2023-03-23T09:13:36;11.40;99.90
54824;DHT22;40724;53.196;5.980;2023-03-23T09:16:03;11.50;99.90
54824;DHT22;40724;53.196;5.980;2023-03-23T09:18:30;11.60;99.90
54824;DHT22;40724;53.196;5.980;2023-03-23T09:20:58;11.60;99.90
54824;DHT22;40724;53.196;5.980;2023-03-23T09:23:25;11.60;99.90
54824;DHT22;40724;53.196;5.980;2023-03-23T09:25:51;11.60;99.90
54824;DHT22;40724;53.196;5.980;2023-03-23T09:28:17;11.60;99.90
54824;DHT22;40724;53.196;5.980;2023-03-23T09:30:44;11.70;99.90
54824;DHT22;40724;53.196;5.980;2023-03-23T09:33:11;11.70;99.90
54824;DHT22;40724;53.196;5.980;2023-03-23T09:43:44;11.80;99.90
54824;DHT22;40724;53.196;5.980;2023-03-23T10:40:22;12.00;99.90
54824;DHT22;40724;53.196;5.980;2023-03-23T10:42:49;12.60;99.90
54824;DHT22;40724;53.196;5.980;2023-03-23T10:50:31;12.70;99.90
54824;DHT22;40724;53.196;5.980;2023-03-23T10:52:59;12.70;99.90
54824;DHT22;40724;53.196;5.980;2023-03-23T10:55:39;12.70;99.90
54824;DHT22;40724;53.196;5.980;2023-03-23T10:58:27;12.70;99.90
54824;DHT22;40724;53.196;5.980;2023-03-23T11:00:59;12.80;99.90
54824;DHT22;40724;53.196;5.980;2023-03-23T11:03:40;12.80;99.90
54824;DHT22;40724;53.196;5.980;2023-03-23T11:06:08;12.90;99.90
